Washburn, Illinois
Current Conditions -  °F | °C
As of 12:55 PM on Saturday 25 Oct 2014 (Local Time) from KC75 Reporting Station
Clear Clear  
Wind Chill: 71°   Ceiling: Unl
Heat Index: 71°   Visibility: 10mi
Dew Point: 47°   Wind: 8mph
Humidity: 44%   Direction: 320°NW
Pressure: 30"   Gusts: NA
Location:  40.92°N, 89.29°W
Report Text: KC75 251755Z AUTO 32007KT 10SM CLR 22/09 A3000 RMK AO2 T02150086 10216 20120
Loading
Personal Weather Stations






























Interactive Weather Map
Tropical Storm Tracking
New forecast layout! Learn more

10-Day Weather Forecast

Advertisements
Track Severe Weather on mobile